Time;durP1;ratioP1;P1;durP2;ratioP2;P2;SDS_P1;SDS_P2;PMS_P1;PMS_P2;Temp;Humidity;BMP_temperature;BMP_pressure;BME280_temperature;BME280_humidity;BME280_pressure;Samples;Min_cycle;Max_cycle;Signal;HPM_P1;HPM_P2
2022/02/03 00:00:47;;;;;;;30.48;21.60;;;;;;;;;;5085086;28;20892;-90
2022/02/03 00:03:19;;;;;;;29.00;21.52;;;;;;;;;;5088418;28;20400;-91
2022/02/03 00:05:51;;;;;;;30.23;21.38;;;;;;;;;;5086260;28;20525;-90
2022/02/03 00:08:37;;;;;;;29.00;21.00;;;;;;;;;;5068255;28;20774;-89
2022/02/03 00:11:25;;;;;;;31.20;20.70;;;;;;;;;;5076948;28;20611;-90
2022/02/03 00:22:13;;;;;;;29.80;21.77;;;;;;;;;;5043945;28;20442;-90
2022/02/03 00:25:01;;;;;;;31.00;22.67;;;;;;;;;;5082253;28;20404;-89
2022/02/03 00:27:45;;;;;;;33.50;22.13;;;;;;;;;;5080180;28;20434;-90
2022/02/03 00:30:14;;;;;;;30.77;21.55;;;;;;;;;;5080106;28;20409;-90
2022/02/03 00:33:06;;;;;;;33.45;21.95;;;;;;;;;;5080463;28;20904;-90
2022/02/03 00:38:43;;;;;;;29.02;20.55;;;;;;;;;;5080965;28;20396;-90
2022/02/03 00:49:32;;;;;;;29.80;20.75;;;;;;;;;;5075517;28;20489;-91
2022/02/03 00:52:00;;;;;;;30.13;20.73;;;;;;;;;;5077544;28;20909;-90
2022/02/03 00:54:32;;;;;;;28.50;20.15;;;;;;;;;;5084958;28;20449;-89
2022/02/03 00:57:03;;;;;;;28.75;19.38;;;;;;;;;;5087223;28;20450;-90
2022/02/03 00:59:35;;;;;;;28.45;19.10;;;;;;;;;;5087039;28;20432;-89
2022/02/03 01:02:06;;;;;;;29.55;20.13;;;;;;;;;;5086632;28;20404;-89
2022/02/03 01:04:35;;;;;;;30.23;20.23;;;;;;;;;;5086670;28;20956;-89
2022/02/03 01:07:03;;;;;;;29.38;20.65;;;;;;;;;;5086392;28;20400;-90
2022/02/03 01:09:36;;;;;;;28.70;21.05;;;;;;;;;;5086820;28;20558;-90
2022/02/03 01:12:12;;;;;;;35.80;23.48;;;;;;;;;;5086727;28;20424;-89
2022/02/03 01:14:47;;;;;;;34.42;23.88;;;;;;;;;;5083029;28;20428;-90
2022/02/03 01:17:27;;;;;;;34.97;23.47;;;;;;;;;;5086052;28;20447;-90
2022/02/03 01:37:11;;;;;;;32.92;20.23;;;;;;;;;;5075308;28;20752;-90
2022/02/03 01:45:50;;;;;;;31.40;22.00;;;;;;;;;;5041614;28;20387;-87
2022/02/03 01:48:33;;;;;;;33.25;22.15;;;;;;;;;;5043469;28;20498;-90
2022/02/03 01:53:46;;;;;;;33.35;22.40;;;;;;;;;;5090051;28;20404;-89
2022/02/03 01:56:15;;;;;;;33.35;21.60;;;;;;;;;;5090436;28;20913;-90
2022/02/03 01:58:50;;;;;;;30.10;20.87;;;;;;;;;;5087363;28;20476;-89
2022/02/03 02:01:24;;;;;;;30.92;20.80;;;;;;;;;;5090556;28;21187;-90
2022/02/03 02:03:56;;;;;;;31.90;21.58;;;;;;;;;;5078549;28;20404;-91
2022/02/03 02:06:47;;;;;;;29.77;21.20;;;;;;;;;;5083086;28;20450;-90
2022/02/03 02:09:22;;;;;;;30.38;21.20;;;;;;;;;;5089681;28;20764;-90
2022/02/03 02:12:02;;;;;;;32.35;21.02;;;;;;;;;;5089987;28;20419;-90
2022/02/03 02:15:02;;;;;;;32.45;21.02;;;;;;;;;;5079731;28;20430;-89
2022/02/03 02:17:58;;;;;;;28.88;20.55;;;;;;;;;;5089607;28;20764;-90
2022/02/03 02:37:48;;;;;;;28.95;21.40;;;;;;;;;;5088878;28;21189;-89
2022/02/03 02:43:11;;;;;;;31.35;22.25;;;;;;;;;;5055179;28;20412;-91
2022/02/03 02:45:49;;;;;;;35.42;23.33;;;;;;;;;;5084389;28;20404;-92
2022/02/03 02:48:34;;;;;;;31.55;22.45;;;;;;;;;;5090800;28;20453;-91
2022/02/03 02:51:08;;;;;;;31.45;23.13;;;;;;;;;;5090590;28;20412;-92
2022/02/03 02:56:54;;;;;;;32.13;22.70;;;;;;;;;;5065165;28;20469;-90
2022/02/03 02:59:44;;;;;;;32.28;21.92;;;;;;;;;;5088320;28;20822;-91
2022/02/03 03:02:53;;;;;;;36.13;23.48;;;;;;;;;;5090247;28;21085;-90
2022/02/03 03:30:34;;;;;;;35.87;22.70;;;;;;;;;;5083882;28;20442;-90
2022/02/03 03:33:18;;;;;;;35.08;23.35;;;;;;;;;;5089097;28;20478;-90
2022/02/03 03:35:49;;;;;;;34.43;22.37;;;;;;;;;;5089413;28;20493;-91
2022/02/03 03:38:19;;;;;;;35.08;23.52;;;;;;;;;;5089487;28;20446;-90
2022/02/03 03:40:50;;;;;;;32.47;22.25;;;;;;;;;;5089425;28;20457;-91
2022/02/03 03:43:28;;;;;;;34.80;22.20;;;;;;;;;;5084947;28;20789;-91
2022/02/03 03:45:56;;;;;;;35.30;21.85;;;;;;;;;;5083858;28;20434;-90
2022/02/03 03:48:31;;;;;;;34.13;22.63;;;;;;;;;;5089060;28;21084;-91
2022/02/03 03:51:05;;;;;;;34.13;22.30;;;;;;;;;;5089042;28;20392;-91
2022/02/03 03:53:43;;;;;;;36.20;22.05;;;;;;;;;;5089111;28;20416;-92
2022/02/03 03:56:21;;;;;;;36.65;23.00;;;;;;;;;;5091438;28;20402;-91
2022/02/03 04:31:07;;;;;;;30.10;22.00;;;;;;;;;;5087205;28;20403;-91
2022/02/03 04:34:02;;;;;;;30.80;21.40;;;;;;;;;;5068352;28;20421;-92
2022/02/03 04:54:58;;;;;;;30.10;20.55;;;;;;;;;;5068293;28;20463;-91
2022/02/03 05:00:45;;;;;;;32.45;21.33;;;;;;;;;;5081350;28;20399;-91
2022/02/03 05:04:04;;;;;;;30.33;20.97;;;;;;;;;;5082142;28;20471;-91
2022/02/03 05:06:53;;;;;;;31.13;20.67;;;;;;;;;;5063546;28;20397;-91
2022/02/03 05:09:43;;;;;;;31.77;20.30;;;;;;;;;;5084145;28;20408;-91
2022/02/03 05:12:29;;;;;;;28.75;20.17;;;;;;;;;;5079665;28;20419;-91
2022/02/03 05:21:26;;;;;;;31.60;20.38;;;;;;;;;;5091005;28;20538;-93
2022/02/03 05:24:49;;;;;;;32.03;20.52;;;;;;;;;;5102905;28;20461;-90
2022/02/03 05:33:57;;;;;;;32.80;20.88;;;;;;;;;;5085738;28;20435;-93
2022/02/03 05:42:58;;;;;;;30.98;20.05;;;;;;;;;;5069083;28;20423;-91
2022/02/03 05:45:59;;;;;;;29.27;19.75;;;;;;;;;;5084704;28;20404;-91
2022/02/03 05:48:53;;;;;;;31.08;20.00;;;;;;;;;;5084168;28;20412;-92
2022/02/03 05:51:50;;;;;;;31.75;19.70;;;;;;;;;;5085186;28;20411;-92
2022/02/03 05:54:46;;;;;;;31.30;19.83;;;;;;;;;;5084678;28;20440;-92
2022/02/03 06:03:29;;;;;;;30.67;19.90;;;;;;;;;;5083115;28;20419;-91
2022/02/03 06:06:03;;;;;;;30.75;19.90;;;;;;;;;;5083885;28;20411;-91
2022/02/03 06:08:37;;;;;;;32.45;19.80;;;;;;;;;;5083321;28;20390;-92
2022/02/03 06:14:02;;;;;;;35.75;20.42;;;;;;;;;;5081835;28;20427;-92
2022/02/03 06:16:39;;;;;;;28.38;19.58;;;;;;;;;;5083637;28;20427;-90
2022/02/03 06:21:56;;;;;;;27.63;19.07;;;;;;;;;;5085520;28;20545;-92
2022/02/03 06:24:35;;;;;;;33.23;20.97;;;;;;;;;;5089766;28;20441;-91
2022/02/03 06:29:51;;;;;;;29.73;19.95;;;;;;;;;;5086468;28;20427;-90
2022/02/03 06:32:19;;;;;;;30.73;19.40;;;;;;;;;;5085107;28;20420;-90
2022/02/03 06:34:48;;;;;;;27.98;19.55;;;;;;;;;;5067746;28;20450;-90
2022/02/03 06:37:15;;;;;;;31.92;19.45;;;;;;;;;;5064293;28;20436;-92
2022/02/03 06:39:42;;;;;;;31.83;19.48;;;;;;;;;;5088234;28;20402;-91
2022/02/03 06:42:10;;;;;;;29.80;18.95;;;;;;;;;;5075309;28;20458;-88
2022/02/03 06:44:41;;;;;;;31.70;18.60;;;;;;;;;;5089279;28;20419;-90
2022/02/03 06:47:16;;;;;;;31.77;18.00;;;;;;;;;;5088026;28;20934;-89
2022/02/03 06:49:53;;;;;;;28.27;17.73;;;;;;;;;;5088732;28;20447;-89
2022/02/03 06:52:32;;;;;;;28.73;17.90;;;;;;;;;;5071493;28;20768;-90
2022/02/03 06:55:07;;;;;;;29.03;18.37;;;;;;;;;;5090321;28;20486;-89
2022/02/03 06:57:40;;;;;;;29.20;17.70;;;;;;;;;;5085808;28;20938;-91
2022/02/03 07:00:17;;;;;;;27.42;17.40;;;;;;;;;;5086288;28;20407;-90
2022/02/03 07:02:46;;;;;;;29.17;16.98;;;;;;;;;;5073036;28;20393;-91
2022/02/03 07:05:13;;;;;;;27.58;17.30;;;;;;;;;;5068190;28;20431;-91
2022/02/03 07:07:42;;;;;;;28.33;17.35;;;;;;;;;;5067266;28;20404;-91
2022/02/03 07:10:10;;;;;;;29.38;17.63;;;;;;;;;;5087860;28;20495;-90
2022/02/03 07:12:37;;;;;;;28.85;17.65;;;;;;;;;;5086718;28;20632;-91
2022/02/03 07:15:06;;;;;;;27.83;17.60;;;;;;;;;;5087119;28;20904;-90
2022/02/03 07:17:33;;;;;;;28.67;18.02;;;;;;;;;;5076421;28;20899;-91
2022/02/03 07:20:03;;;;;;;29.20;17.23;;;;;;;;;;5098013;28;20448;-90
2022/02/03 07:22:31;;;;;;;26.42;17.27;;;;;;;;;;5113764;27;20399;-89
2022/02/03 07:25:01;;;;;;;24.85;17.13;;;;;;;;;;5097115;28;20396;-90
2022/02/03 07:27:28;;;;;;;26.67;17.13;;;;;;;;;;5068561;28;20422;-90
2022/02/03 07:29:55;;;;;;;26.48;17.45;;;;;;;;;;5067819;28;20814;-89
2022/02/03 07:32:24;;;;;;;28.20;17.10;;;;;;;;;;5082181;28;20846;-89
2022/02/03 07:34:54;;;;;;;30.20;18.23;;;;;;;;;;5085991;28;20400;-90
2022/02/03 07:37:24;;;;;;;26.27;17.13;;;;;;;;;;5087924;28;20416;-91
2022/02/03 07:39:51;;;;;;;25.63;17.23;;;;;;;;;;5070150;28;20456;-91
2022/02/03 07:42:19;;;;;;;26.85;17.10;;;;;;;;;;5066456;28;20408;-91
2022/02/03 07:44:47;;;;;;;24.70;16.42;;;;;;;;;;5087702;28;20412;-91
2022/02/03 07:47:14;;;;;;;23.10;16.27;;;;;;;;;;5070282;28;20451;-90
2022/02/03 07:49:41;;;;;;;25.88;15.43;;;;;;;;;;5087986;28;20477;-90
2022/02/03 07:52:08;;;;;;;22.58;14.60;;;;;;;;;;5083512;28;20409;-90
2022/02/03 07:54:36;;;;;;;21.60;13.90;;;;;;;;;;5081954;28;20945;-87
2022/02/03 07:57:04;;;;;;;23.67;14.93;;;;;;;;;;5083292;28;20407;-93
2022/02/03 07:59:32;;;;;;;19.80;13.07;;;;;;;;;;5087795;28;20404;-91
2022/02/03 08:01:59;;;;;;;21.58;12.45;;;;;;;;;;5065408;28;20413;-92
2022/02/03 08:04:30;;;;;;;18.83;12.90;;;;;;;;;;5068727;28;20404;-90
2022/02/03 08:06:57;;;;;;;17.88;12.35;;;;;;;;;;5090275;28;20404;-92
2022/02/03 08:09:28;;;;;;;19.17;12.27;;;;;;;;;;5080461;28;20396;-92
2022/02/03 08:11:55;;;;;;;17.92;11.10;;;;;;;;;;5103524;28;20419;-93
2022/02/03 08:14:29;;;;;;;18.70;10.90;;;;;;;;;;5086091;28;20447;-92
2022/02/03 08:17:02;;;;;;;15.57;10.60;;;;;;;;;;5086116;28;20515;-92
2022/02/03 08:19:35;;;;;;;20.60;13.98;;;;;;;;;;5086336;28;20404;-73
2022/02/03 08:22:07;;;;;;;25.17;16.58;;;;;;;;;;5085265;28;20436;-72
2022/02/03 08:24:44;;;;;;;27.17;16.67;;;;;;;;;;5085501;28;20396;-74
2022/02/03 08:27:37;;;;;;;22.75;15.38;;;;;;;;;;5082955;28;21056;-74
2022/02/03 08:30:20;;;;;;;21.75;14.25;;;;;;;;;;5082599;28;20422;-75
2022/02/03 08:32:54;;;;;;;20.38;12.70;;;;;;;;;;5084432;28;20887;-89
2022/02/03 08:35:32;;;;;;;19.70;12.68;;;;;;;;;;5087230;28;20414;-88
2022/02/03 08:38:06;;;;;;;18.00;12.03;;;;;;;;;;5086976;28;20414;-90
2022/02/03 08:40:44;;;;;;;18.33;13.00;;;;;;;;;;5086568;28;20443;-91
2022/02/03 08:43:11;;;;;;;21.35;12.93;;;;;;;;;;5084467;28;20406;-89
2022/02/03 08:45:38;;;;;;;19.65;12.02;;;;;;;;;;5088501;28;20399;-89
2022/02/03 08:48:07;;;;;;;19.20;12.48;;;;;;;;;;5087994;28;20404;-90
2022/02/03 08:50:35;;;;;;;20.40;12.18;;;;;;;;;;5087695;28;20393;-90
2022/02/03 08:53:07;;;;;;;18.20;11.38;;;;;;;;;;5086591;28;20424;-91
2022/02/03 08:55:42;;;;;;;16.33;10.38;;;;;;;;;;5086356;28;20404;-90
2022/02/03 09:37:34;;;;;;;9.73;6.90;;;;;;;;;;5092934;28;20406;-89
2022/02/03 09:54:33;;;;;;;10.50;6.32;;;;;;;;;;5021860;28;20480;-90
2022/02/03 09:57:18;;;;;;;10.93;6.72;;;;;;;;;;5008716;28;20489;-88
2022/02/03 09:59:57;;;;;;;12.13;6.80;;;;;;;;;;5074957;28;20404;-90
2022/02/03 10:02:28;;;;;;;10.10;6.38;;;;;;;;;;5085297;28;20883;-90
2022/02/03 10:04:57;;;;;;;10.52;7.00;;;;;;;;;;5067822;28;20956;-90
2022/02/03 10:07:28;;;;;;;10.25;7.18;;;;;;;;;;5084894;28;20423;-88
2022/02/03 10:09:59;;;;;;;12.27;7.47;;;;;;;;;;5084992;28;20420;-89
2022/02/03 10:12:34;;;;;;;12.48;8.02;;;;;;;;;;5086629;28;20396;-86
2022/02/03 10:15:02;;;;;;;11.93;8.18;;;;;;;;;;5085281;28;20423;-91
2022/02/03 10:17:34;;;;;;;11.88;7.63;;;;;;;;;;5080490;28;20489;-88
2022/02/03 10:20:02;;;;;;;11.55;8.15;;;;;;;;;;5089358;28;20445;-90
2022/02/03 10:22:29;;;;;;;12.50;8.50;;;;;;;;;;5086248;28;20404;-90
2022/02/03 10:25:10;;;;;;;11.02;8.02;;;;;;;;;;5090154;28;20887;-88
2022/02/03 10:27:39;;;;;;;12.80;8.40;;;;;;;;;;5090655;28;20402;-89
2022/02/03 10:30:13;;;;;;;12.73;8.10;;;;;;;;;;5055916;28;20409;-89
2022/02/03 10:32:41;;;;;;;12.48;7.25;;;;;;;;;;5079378;28;20400;-89
2022/02/03 10:35:22;;;;;;;11.82;6.95;;;;;;;;;;5072622;28;20503;-89
2022/02/03 10:38:07;;;;;;;13.70;7.40;;;;;;;;;;5090796;28;20516;-88
2022/02/03 10:40:52;;;;;;;10.68;6.57;;;;;;;;;;5093621;28;20404;-87
2022/02/03 10:43:48;;;;;;;9.65;6.60;;;;;;;;;;5093114;28;20405;-87
2022/02/03 10:49:25;;;;;;;11.77;6.70;;;;;;;;;;5094513;28;20477;-90
2022/02/03 10:54:48;;;;;;;10.10;7.18;;;;;;;;;;5088189;28;20910;-90
2022/02/03 11:03:01;;;;;;;10.15;6.25;;;;;;;;;;5070690;28;20777;-89
2022/02/03 11:08:15;;;;;;;6.63;5.18;;;;;;;;;;5085853;28;20479;-89
2022/02/03 11:10:49;;;;;;;8.55;4.90;;;;;;;;;;5082939;28;20475;-88
2022/02/03 11:13:20;;;;;;;9.90;5.35;;;;;;;;;;5079882;28;20484;-89
2022/02/03 11:15:51;;;;;;;7.63;5.35;;;;;;;;;;5089407;28;20451;-90
2022/02/03 11:18:18;;;;;;;8.57;5.05;;;;;;;;;;5088613;28;20478;-89
2022/02/03 11:20:45;;;;;;;11.80;5.30;;;;;;;;;;5088869;28;20484;-88
2022/02/03 11:23:23;;;;;;;10.03;5.40;;;;;;;;;;5088298;28;20457;-88
2022/02/03 11:26:06;;;;;;;7.35;5.70;;;;;;;;;;5089015;28;20408;-89
2022/02/03 11:29:02;;;;;;;7.47;5.25;;;;;;;;;;5086870;28;20452;-88
2022/02/03 11:48:56;;;;;;;10.48;5.38;;;;;;;;;;5084206;28;20433;-89
2022/02/03 11:55:13;;;;;;;6.72;4.85;;;;;;;;;;5088603;28;20491;-89
2022/02/03 12:03:54;;;;;;;6.00;3.72;;;;;;;;;;5084278;28;20407;-89
2022/02/03 12:12:25;;;;;;;6.97;4.40;;;;;;;;;;5074812;28;20808;-88
2022/02/03 12:17:54;;;;;;;8.05;4.03;;;;;;;;;;5084275;28;20400;-88
2022/02/03 12:20:39;;;;;;;9.50;4.00;;;;;;;;;;5079955;28;20411;-88
2022/02/03 12:23:40;;;;;;;7.15;3.95;;;;;;;;;;5075846;28;20968;-88
2022/02/03 12:26:16;;;;;;;9.50;4.68;;;;;;;;;;5078119;28;20573;-88
2022/02/03 12:28:51;;;;;;;9.02;6.53;;;;;;;;;;5077421;28;20458;-88
2022/02/03 12:37:12;;;;;;;8.93;5.25;;;;;;;;;;5085021;28;20968;-88
2022/02/03 12:39:50;;;;;;;6.15;4.75;;;;;;;;;;5080538;28;21125;-87
2022/02/03 12:42:44;;;;;;;8.53;4.53;;;;;;;;;;5081810;28;20404;-88
2022/02/03 12:45:17;;;;;;;9.52;4.72;;;;;;;;;;5083646;28;20404;-89
2022/02/03 12:47:48;;;;;;;8.70;5.32;;;;;;;;;;5083092;28;20415;-89
2022/02/03 12:50:23;;;;;;;7.53;4.70;;;;;;;;;;5083624;28;20835;-87
2022/02/03 12:52:52;;;;;;;6.18;4.40;;;;;;;;;;5076194;28;20437;-88
2022/02/03 12:55:26;;;;;;;8.55;4.50;;;;;;;;;;5083782;28;20481;-89
2022/02/03 12:57:54;;;;;;;9.85;4.90;;;;;;;;;;5078462;28;20905;-88
2022/02/03 13:00:29;;;;;;;9.50;5.15;;;;;;;;;;5080060;28;20413;-88
2022/02/03 13:02:58;;;;;;;10.30;4.57;;;;;;;;;;5078324;28;20452;-88
2022/02/03 13:05:27;;;;;;;7.90;4.22;;;;;;;;;;5077208;28;20491;-87
2022/02/03 13:07:58;;;;;;;9.73;3.33;;;;;;;;;;5074714;28;20546;-87
2022/02/03 13:10:27;;;;;;;7.03;3.00;;;;;;;;;;5076918;28;20457;-87
2022/02/03 13:13:04;;;;;;;7.60;3.30;;;;;;;;;;5075623;28;20822;-86
2022/02/03 13:15:40;;;;;;;7.38;3.65;;;;;;;;;;5078491;28;20460;-86
2022/02/03 13:18:12;;;;;;;8.23;3.72;;;;;;;;;;5076372;28;20404;-87
2022/02/03 13:20:45;;;;;;;8.05;3.60;;;;;;;;;;5082393;28;20483;-86
2022/02/03 13:23:20;;;;;;;8.77;3.50;;;;;;;;;;5076919;28;20400;-86
2022/02/03 13:25:59;;;;;;;8.13;3.45;;;;;;;;;;5078158;28;20411;-86
2022/02/03 13:28:37;;;;;;;7.40;3.50;;;;;;;;;;5082984;28;20443;-86
2022/02/03 13:31:19;;;;;;;6.47;3.60;;;;;;;;;;5084615;28;20458;-87
2022/02/03 13:33:58;;;;;;;8.18;3.40;;;;;;;;;;5073826;28;20414;-85
2022/02/03 13:36:32;;;;;;;8.52;3.60;;;;;;;;;;5074620;28;21059;-87
2022/02/03 13:39:07;;;;;;;7.07;3.10;;;;;;;;;;5072049;28;20407;-87
2022/02/03 13:41:38;;;;;;;7.47;3.30;;;;;;;;;;5076526;28;20412;-86
2022/02/03 13:44:06;;;;;;;7.03;2.90;;;;;;;;;;5072371;28;20408;-87
2022/02/03 13:46:35;;;;;;;8.20;2.67;;;;;;;;;;5086589;28;20457;-87
2022/02/03 13:49:02;;;;;;;7.32;2.40;;;;;;;;;;5088413;28;20404;-85
2022/02/03 13:51:35;;;;;;;8.10;2.42;;;;;;;;;;5089551;28;20404;-87
2022/02/03 13:54:13;;;;;;;6.28;2.40;;;;;;;;;;5087783;28;20749;-87
2022/02/03 14:11:13;;;;;;;8.57;2.58;;;;;;;;;;5088682;28;20513;-85
2022/02/03 14:16:22;;;;;;;7.68;2.50;;;;;;;;;;5088766;28;20456;-87
2022/02/03 14:19:18;;;;;;;8.10;2.10;;;;;;;;;;5088249;28;20717;-87
2022/02/03 14:21:46;;;;;;;6.70;2.42;;;;;;;;;;5089022;28;20906;-87
2022/02/03 14:27:20;;;;;;;7.10;2.40;;;;;;;;;;5087822;28;20419;-87
2022/02/03 14:29:49;;;;;;;7.37;2.70;;;;;;;;;;5082648;28;20925;-86
2022/02/03 14:32:28;;;;;;;4.60;2.33;;;;;;;;;;5082822;28;20504;-87
2022/02/03 14:34:55;;;;;;;5.72;2.40;;;;;;;;;;5088131;28;20504;-86
2022/02/03 14:37:29;;;;;;;6.38;2.13;;;;;;;;;;5084755;28;20601;-86
2022/02/03 14:40:14;;;;;;;4.18;2.20;;;;;;;;;;5086630;28;20404;-86
2022/02/03 14:42:44;;;;;;;8.23;2.28;;;;;;;;;;5078985;28;20424;-86
2022/02/03 14:45:14;;;;;;;6.15;2.15;;;;;;;;;;5078124;28;20771;-86
2022/02/03 14:47:41;;;;;;;6.80;2.40;;;;;;;;;;5081307;28;20660;-86
2022/02/03 14:50:10;;;;;;;7.68;2.17;;;;;;;;;;5078336;28;20488;-85
2022/02/03 14:52:55;;;;;;;3.63;1.63;;;;;;;;;;5079205;28;20525;-85
2022/02/03 14:58:23;;;;;;;6.10;1.88;;;;;;;;;;5061196;28;20459;-86
2022/02/03 15:00:51;;;;;;;6.00;2.10;;;;;;;;;;5075530;28;20764;-86
2022/02/03 15:03:19;;;;;;;8.25;2.47;;;;;;;;;;5087564;28;20400;-85
2022/02/03 15:05:46;;;;;;;7.45;2.17;;;;;;;;;;5085145;28;20432;-87
2022/02/03 15:08:19;;;;;;;6.28;2.65;;;;;;;;;;5086095;28;20396;-85
2022/02/03 15:10:52;;;;;;;7.93;2.60;;;;;;;;;;5081059;28;20535;-87
2022/02/03 15:16:02;;;;;;;8.10;2.70;;;;;;;;;;5076373;28;20474;-87
2022/02/03 15:18:29;;;;;;;9.02;2.50;;;;;;;;;;5078648;28;20415;-87
2022/02/03 15:20:56;;;;;;;6.47;2.40;;;;;;;;;;5073280;28;20434;-87
2022/02/03 15:23:23;;;;;;;7.78;2.38;;;;;;;;;;5083481;28;20493;-87
2022/02/03 15:25:50;;;;;;;8.43;2.40;;;;;;;;;;5082925;28;20475;-87
2022/02/03 15:28:18;;;;;;;8.10;2.08;;;;;;;;;;5074748;28;20408;-87
2022/02/03 15:30:46;;;;;;;6.85;2.40;;;;;;;;;;5078654;28;20409;-87
2022/02/03 15:33:14;;;;;;;8.07;2.40;;;;;;;;;;5082463;28;20461;-88
2022/02/03 15:35:45;;;;;;;6.85;2.13;;;;;;;;;;5076455;28;20704;-86
2022/02/03 15:38:15;;;;;;;5.95;1.98;;;;;;;;;;5076485;28;20498;-89
2022/02/03 15:40:43;;;;;;;7.83;2.40;;;;;;;;;;5082462;28;21229;-87
2022/02/03 15:43:22;;;;;;;8.15;2.50;;;;;;;;;;5079319;28;20819;-87
2022/02/03 15:45:53;;;;;;;6.10;2.28;;;;;;;;;;5078628;28;20492;-88
2022/02/03 15:48:30;;;;;;;7.70;1.52;;;;;;;;;;5077026;28;22302;-87
2022/02/03 15:51:15;;;;;;;6.95;1.80;;;;;;;;;;5077313;28;20428;-87
2022/02/03 16:02:21;;;;;;;8.27;2.47;;;;;;;;;;5081222;28;20390;-90
2022/02/03 16:18:45;;;;;;;11.85;6.43;;;;;;;;;;5076443;28;20445;-88
2022/02/03 16:21:20;;;;;;;14.45;7.50;;;;;;;;;;5078351;28;20417;-88
2022/02/03 16:26:57;;;;;;;22.70;12.48;;;;;;;;;;5081083;28;20787;-88
2022/02/03 16:43:53;;;;;;;14.73;7.90;;;;;;;;;;5079070;28;20878;-90
2022/02/03 16:52:05;;;;;;;16.73;7.00;;;;;;;;;;5074648;28;20491;-89
2022/02/03 16:54:32;;;;;;;13.60;6.63;;;;;;;;;;5081960;28;20513;-89
2022/02/03 16:57:03;;;;;;;16.40;6.47;;;;;;;;;;5079607;28;20495;-89
2022/02/03 16:59:33;;;;;;;13.95;6.60;;;;;;;;;;5080625;28;20832;-92
2022/02/03 17:02:00;;;;;;;14.65;6.43;;;;;;;;;;5083030;28;20450;-91
2022/02/03 17:04:27;;;;;;;11.07;5.33;;;;;;;;;;5091923;28;20497;-89
2022/02/03 17:06:56;;;;;;;14.20;6.70;;;;;;;;;;5082779;28;20409;-91
2022/02/03 17:09:23;;;;;;;12.10;6.35;;;;;;;;;;5088213;28;20458;-92
2022/02/03 17:11:49;;;;;;;24.67;9.63;;;;;;;;;;5083078;28;20433;-92
2022/02/03 17:14:17;;;;;;;11.88;6.20;;;;;;;;;;5090357;28;20462;-93
2022/02/03 17:16:44;;;;;;;35.38;15.18;;;;;;;;;;5065065;28;20429;-90
2022/02/03 17:19:11;;;;;;;24.87;12.10;;;;;;;;;;5084977;28;20426;-91
2022/02/03 17:21:38;;;;;;;17.60;9.02;;;;;;;;;;5082282;28;20838;-93
2022/02/03 17:24:10;;;;;;;25.83;13.10;;;;;;;;;;5086821;28;20404;-90
2022/02/03 17:26:49;;;;;;;18.67;10.05;;;;;;;;;;5085086;28;20836;-93
2022/02/03 17:29:21;;;;;;;18.42;9.10;;;;;;;;;;5073809;28;20416;-91
2022/02/03 17:31:59;;;;;;;27.58;12.98;;;;;;;;;;5072201;28;20496;-91
2022/02/03 17:52:14;;;;;;;23.25;12.35;;;;;;;;;;5077487;28;20397;-92
2022/02/03 18:10:46;;;;;;;31.13;16.30;;;;;;;;;;5073813;28;20445;-88
2022/02/03 18:52:08;;;;;;;30.98;17.83;;;;;;;;;;5071404;28;20408;-86
2022/02/03 18:54:51;;;;;;;24.83;16.43;;;;;;;;;;5083300;28;20417;-87
2022/02/03 18:57:30;;;;;;;29.70;16.88;;;;;;;;;;5074256;28;20735;-89
2022/02/03 19:03:04;;;;;;;30.45;19.10;;;;;;;;;;5075965;28;20407;-93
2022/02/03 20:01:21;;;;;;;29.98;19.23;;;;;;;;;;5059424;28;20433;-91
2022/02/03 20:04:14;;;;;;;29.40;18.95;;;;;;;;;;5080319;28;20398;-92
2022/02/03 20:06:52;;;;;;;30.73;19.83;;;;;;;;;;5078405;28;20405;-92
2022/02/03 20:09:27;;;;;;;26.92;19.55;;;;;;;;;;5082696;28;20424;-92
2022/02/03 20:11:54;;;;;;;29.65;20.10;;;;;;;;;;5080125;28;20424;-93
2022/02/03 20:14:23;;;;;;;27.50;19.73;;;;;;;;;;5082627;28;20400;-92
2022/02/03 20:16:51;;;;;;;31.90;19.27;;;;;;;;;;5084553;28;20452;-93
2022/02/03 20:19:18;;;;;;;29.20;19.48;;;;;;;;;;5090105;28;20422;-90
2022/02/03 20:21:46;;;;;;;29.20;19.30;;;;;;;;;;5069655;28;20404;-90
2022/02/03 20:24:13;;;;;;;27.70;18.33;;;;;;;;;;5084675;28;20455;-90
2022/02/03 20:26:42;;;;;;;30.45;19.25;;;;;;;;;;5080275;28;20529;-91
2022/02/03 20:29:10;;;;;;;32.67;19.05;;;;;;;;;;5078908;28;20924;-91
2022/02/03 20:31:38;;;;;;;30.17;18.95;;;;;;;;;;5100512;27;20404;-91
2022/02/03 20:34:05;;;;;;;26.95;17.55;;;;;;;;;;5084452;28;20417;-92
2022/02/03 20:36:32;;;;;;;29.83;18.83;;;;;;;;;;5086021;28;20422;-92
2022/02/03 20:39:00;;;;;;;31.48;19.23;;;;;;;;;;5080302;28;20412;-91
2022/02/03 20:41:28;;;;;;;27.48;18.55;;;;;;;;;;5082122;28;20504;-92
2022/02/03 20:43:57;;;;;;;24.77;17.48;;;;;;;;;;5086763;28;20695;-91
2022/02/03 20:46:24;;;;;;;29.40;18.50;;;;;;;;;;5082685;28;20404;-88
2022/02/03 20:48:51;;;;;;;28.08;17.77;;;;;;;;;;5086147;28;20408;-90
2022/02/03 20:51:21;;;;;;;25.95;17.50;;;;;;;;;;5087292;28;20420;-89
2022/02/03 20:53:50;;;;;;;29.45;18.40;;;;;;;;;;5047850;28;20495;-91
2022/02/03 20:56:20;;;;;;;28.02;18.55;;;;;;;;;;5055051;28;20413;-92
2022/02/03 20:58:48;;;;;;;30.45;19.10;;;;;;;;;;5081504;28;20507;-90
2022/02/03 21:01:22;;;;;;;27.13;19.52;;;;;;;;;;5083210;28;20410;-90
2022/02/03 21:03:50;;;;;;;31.13;22.17;;;;;;;;;;5064330;28;20519;-91
2022/02/03 21:06:17;;;;;;;37.20;23.98;;;;;;;;;;5084458;28;20435;-91
2022/02/03 21:08:48;;;;;;;35.97;21.98;;;;;;;;;;5069959;28;20396;-90
2022/02/03 21:11:15;;;;;;;33.97;22.63;;;;;;;;;;5084065;28;20897;-91
2022/02/03 21:13:42;;;;;;;34.53;23.83;;;;;;;;;;5076281;28;20414;-87
2022/02/03 21:16:10;;;;;;;38.10;24.85;;;;;;;;;;5069987;28;20414;-89
2022/02/03 21:18:41;;;;;;;36.42;24.98;;;;;;;;;;5076256;28;20495;-86
2022/02/03 21:21:09;;;;;;;39.83;28.05;;;;;;;;;;5081199;28;20411;-89
2022/02/03 21:23:36;;;;;;;40.87;25.63;;;;;;;;;;5082693;28;20473;-87
2022/02/03 21:26:07;;;;;;;36.80;24.17;;;;;;;;;;5082726;28;20412;-88
2022/02/03 21:28:36;;;;;;;36.65;25.40;;;;;;;;;;5083303;28;20415;-88
2022/02/03 21:31:05;;;;;;;33.80;24.77;;;;;;;;;;5084898;28;20412;-87
2022/02/03 21:33:35;;;;;;;34.45;22.65;;;;;;;;;;5087305;28;20396;-86
2022/02/03 21:36:09;;;;;;;32.97;23.60;;;;;;;;;;5086013;28;20417;-91
2022/02/03 21:38:37;;;;;;;39.17;26.17;;;;;;;;;;5104185;28;20404;-87
2022/02/03 21:41:05;;;;;;;38.15;25.85;;;;;;;;;;5079966;28;20742;-89
2022/02/03 21:43:32;;;;;;;34.87;25.17;;;;;;;;;;5067471;28;20427;-89
2022/02/03 21:45:59;;;;;;;32.85;24.23;;;;;;;;;;5083649;28;20396;-90
2022/02/03 21:48:26;;;;;;;39.43;25.37;;;;;;;;;;5068135;28;20454;-90
2022/02/03 21:50:55;;;;;;;34.80;22.88;;;;;;;;;;5084694;28;20450;-88
2022/02/03 21:53:28;;;;;;;37.88;24.33;;;;;;;;;;5082450;28;20404;-88
2022/02/03 21:55:56;;;;;;;38.30;24.43;;;;;;;;;;5077700;28;20428;-89
2022/02/03 21:58:25;;;;;;;37.50;23.63;;;;;;;;;;5085204;28;20416;-87
2022/02/03 22:00:53;;;;;;;33.17;23.45;;;;;;;;;;5088966;28;20510;-88
2022/02/03 22:03:21;;;;;;;39.28;25.13;;;;;;;;;;5074255;28;20401;-88
2022/02/03 22:05:48;;;;;;;46.08;27.25;;;;;;;;;;5068504;28;20917;-90
2022/02/03 22:08:15;;;;;;;30.77;21.55;;;;;;;;;;5075317;28;20455;-87
2022/02/03 22:10:43;;;;;;;27.90;19.50;;;;;;;;;;5083324;28;20507;-87
2022/02/03 22:13:10;;;;;;;31.57;20.20;;;;;;;;;;5076739;28;20463;-88
2022/02/03 22:15:37;;;;;;;30.65;20.02;;;;;;;;;;5083182;28;20412;-86
2022/02/03 22:18:10;;;;;;;33.13;21.10;;;;;;;;;;5067394;28;20434;-88
2022/02/03 22:20:38;;;;;;;30.00;21.10;;;;;;;;;;5079510;28;20489;-88
2022/02/03 22:23:18;;;;;;;33.57;20.63;;;;;;;;;;5081396;28;21104;-87
2022/02/03 22:26:16;;;;;;;35.50;21.75;;;;;;;;;;5084439;28;20416;-87
2022/02/03 22:29:18;;;;;;;30.73;20.93;;;;;;;;;;5080450;28;20408;-87
2022/02/03 22:43:00;;;;;;;30.27;21.00;;;;;;;;;;5076640;28;20407;-89
2022/02/03 22:45:47;;;;;;;31.25;20.95;;;;;;;;;;5074924;28;20501;-90
2022/02/03 22:48:24;;;;;;;32.70;21.10;;;;;;;;;;5059758;28;20547;-89
2022/02/03 22:50:51;;;;;;;32.80;21.63;;;;;;;;;;5073225;28;20902;-85
2022/02/03 22:53:18;;;;;;;30.10;21.13;;;;;;;;;;5077006;28;20529;-89
2022/02/03 22:55:45;;;;;;;33.65;21.63;;;;;;;;;;5076949;28;20423;-86
2022/02/03 22:58:31;;;;;;;33.75;21.50;;;;;;;;;;5075471;28;20400;-86
2022/02/03 23:01:00;;;;;;;36.30;21.83;;;;;;;;;;5075709;28;20417;-86
2022/02/03 23:03:27;;;;;;;31.57;21.10;;;;;;;;;;5078886;28;20769;-87
2022/02/03 23:05:54;;;;;;;30.33;20.33;;;;;;;;;;5075563;28;20414;-87
2022/02/03 23:08:28;;;;;;;30.50;19.88;;;;;;;;;;5075753;28;20802;-88
2022/02/03 23:11:06;;;;;;;28.98;19.63;;;;;;;;;;5075386;28;20402;-86
2022/02/03 23:14:02;;;;;;;33.50;20.60;;;;;;;;;;5073157;28;20398;-87
2022/02/03 23:16:43;;;;;;;32.45;20.92;;;;;;;;;;5076425;28;20414;-85
2022/02/03 23:19:31;;;;;;;33.27;21.10;;;;;;;;;;5075194;28;20410;-89
2022/02/03 23:22:11;;;;;;;34.85;21.27;;;;;;;;;;5074704;28;20414;-90
2022/02/03 23:24:39;;;;;;;31.42;21.55;;;;;;;;;;5073539;28;20408;-89
2022/02/03 23:27:25;;;;;;;32.63;21.80;;;;;;;;;;5074856;28;20396;-87